Kezdőlap
METAR-TAF:

METAR-TAF

Repülőterek :

Luni

Sarzana, Olaszország

földrajzi szélesség: 44-05N, földrajzi hosszúság: 009-59E, magasság: 9 m

Jelenlegi meteorológiai megfigyelések

A jelentés 1 órával és 17 perccel ezelõtt készült, 10:55 UTC
Kelet-északkeleti szél 6 kt
Hőmérséklet 13°C
Páratartalom 88%
Légköri nyomás 1024 hPa
Látótávolság: 8000 m
Szórványos felhőzet 1000 lábon
Szakadozott felhőzet 2500 lábon

METAR: LIQW 181055Z 07006KT 8000 SCT010 BKN025 13/11 Q1024 RMK OVC VIS MIN 8000 WIND THR18 12005KT BLU

Idő: 13:12 (12:12 UTC)

Előrejelzés

A jelentés 1 órával és 12 perccel ezelõtt készült, 11:00 UTC
Az előrejelzés 18-én 12 óra UTC és 18-én 21 óra UTC között érvényes
Különbözõ irányokból fújó szél 3 kt
Látótávolság: 8000 m
Szórványos felhőzet 1500 lábon

TAF: LIQW 181100Z 1812/1821 VRB03KT 8000 SCT015

Meteorológiai megfigyelések és előrejelzések több, mint 4000 repülőtéren (METAR és TAF jelentéseket).

A térképen piros és sárga pontok jelzik az elérhető meteorológiai állomásokat.

Mozgassa az egeret a pont fölött, hogy megjelenjen az állomás neve.

Azután kattintson az időjárási megfigyelések és előrejelzések megtekintéséhez.

A térkép megváltoztatása: kattintson a fekete keresztel jelölt zöld gombra ráközelítéshez, a vonallal jelölt zöld gombra távolításhoz, vagy a zöld nyilakra a szomszédos térképek eléréséhez.


METAR-TAF: